Terminal Aerodrome Forecast
Issued by NWS Twin Cities, MN

Home | Current Version | Previous Version | Graphics & Text | Print | Product List | Glossary On
Versions: 1 2 3 4 5 6 7 8 9 10 11 12 13 14 15 16 17 18 19 20 21 22 23 24 25 26 27 28 29
000
FTUS43 KMPX 021451 AAA
TAFMSP
TAF AMD
KMSP 021451Z 0215/0318 21005KT P6SM SKC
     FM021700 19010G16KT P6SM FEW070
     FM030100 18007KT P6SM SCT250
     FM031500 17008KT P6SM SCT050 BKN090=

USA.gov is the U.S. government's official web portal to all federal, state and local government web resources and services.